createdAt,value
2019-03-03T00:01:27.909Z,9.10
2019-03-03T00:04:00.224Z,9.10
2019-03-03T00:06:32.195Z,9.10
2019-03-03T00:09:05.183Z,9.10
2019-03-03T00:11:43.696Z,9.10
2019-03-03T00:14:18.171Z,9.10
2019-03-03T00:16:52.582Z,9.20
2019-03-03T00:19:26.023Z,9.20
2019-03-03T00:22:08.530Z,9.30
2019-03-03T00:24:40.313Z,9.30
2019-03-03T00:27:13.966Z,9.30
2019-03-03T00:29:48.208Z,9.30
2019-03-03T00:34:48.032Z,9.40
2019-03-03T00:37:26.875Z,9.40
2019-03-03T00:40:24.066Z,9.40
2019-03-03T00:43:13.275Z,9.40
2019-03-03T00:46:03.984Z,9.30
2019-03-03T00:48:55.092Z,9.30
2019-03-03T00:51:45.013Z,9.30
2019-03-03T00:54:45.155Z,9.40
2019-03-03T00:57:38.033Z,9.40
2019-03-03T01:00:51.078Z,9.40
2019-03-03T01:03:34.675Z,9.50
2019-03-03T01:06:28.188Z,9.50
2019-03-03T01:09:20.371Z,9.50
2019-03-03T01:12:15.832Z,9.50
2019-03-03T01:15:15.238Z,9.60
2019-03-03T01:18:16.684Z,9.60
2019-03-03T01:21:12.279Z,9.60
2019-03-03T01:24:04.329Z,9.60
2019-03-03T01:26:36.419Z,9.60
2019-03-03T01:29:08.242Z,9.70
2019-03-03T01:31:47.659Z,9.70
2019-03-03T01:34:19.981Z,9.70
2019-03-03T01:36:52.121Z,9.70
2019-03-03T01:39:24.964Z,9.80
2019-03-03T01:41:57.152Z,9.80
2019-03-03T01:44:29.871Z,9.80
2019-03-03T01:47:01.710Z,9.80
2019-03-03T01:49:33.477Z,9.80
2019-03-03T01:52:07.065Z,9.80
2019-03-03T01:54:40.546Z,9.80
2019-03-03T01:59:39.705Z,9.90
2019-03-03T02:02:11.862Z,9.90
2019-03-03T02:04:43.657Z,9.90
2019-03-03T02:07:15.706Z,9.90
2019-03-03T02:09:48.402Z,9.90
2019-03-03T02:12:20.174Z,9.90
2019-03-03T02:14:52.959Z,9.90
2019-03-03T02:17:24.993Z,9.90
2019-03-03T02:19:58.094Z,9.90
2019-03-03T02:22:30.901Z,9.90
2019-03-03T02:27:33.075Z,9.90
2019-03-03T02:30:09.250Z,9.90
2019-03-03T02:32:41.045Z,9.90
2019-03-03T02:35:14.598Z,9.90
2019-03-03T02:37:46.708Z,9.90
2019-03-03T02:40:19.478Z,9.90
2019-03-03T02:42:51.860Z,9.90
2019-03-03T02:45:24.517Z,9.90
2019-03-03T02:47:57.400Z,9.90
2019-03-03T02:50:29.013Z,9.90
2019-03-03T02:53:04.083Z,9.90
2019-03-03T02:55:36.468Z,9.90
2019-03-03T02:58:08.638Z,9.90
2019-03-03T03:00:49.100Z,9.90
2019-03-03T03:03:18.073Z,9.90
2019-03-03T03:06:25.686Z,9.90
2019-03-03T03:09:12.864Z,9.90
2019-03-03T03:12:06.761Z,9.90
2019-03-03T03:15:00.902Z,10.00
2019-03-03T03:18:05.532Z,9.90
2019-03-03T03:20:54.640Z,9.90
2019-03-03T03:23:43.461Z,9.90
2019-03-03T03:26:51.481Z,9.90
2019-03-03T03:29:48.933Z,10.00
2019-03-03T03:32:45.133Z,10.00
2019-03-03T03:35:42.223Z,10.00
2019-03-03T03:38:44.048Z,10.00
2019-03-03T03:41:48.349Z,10.00
2019-03-03T03:44:39.213Z,10.10
2019-03-03T03:47:23.563Z,10.00
2019-03-03T03:50:27.106Z,10.10
2019-03-03T03:53:10.980Z,10.10
2019-03-03T03:55:57.331Z,10.10
2019-03-03T03:59:01.961Z,10.00
2019-03-03T04:01:52.770Z,9.90
2019-03-03T04:04:52.638Z,9.70
2019-03-03T04:07:33.885Z,9.70
2019-03-03T04:13:17.791Z,9.60
2019-03-03T04:16:06.482Z,9.50
2019-03-03T04:19:03.601Z,9.60
2019-03-03T04:22:07.829Z,9.60
2019-03-03T04:25:00.932Z,9.60
2019-03-03T04:27:55.475Z,9.60
2019-03-03T04:30:37.388Z,9.60
2019-03-03T04:33:18.826Z,9.60
2019-03-03T04:36:30.290Z,9.60
2019-03-03T04:39:10.503Z,9.60
2019-03-03T04:42:05.179Z,9.50
2019-03-03T04:44:56.249Z,9.40
2019-03-03T04:47:53.772Z,9.30
2019-03-03T04:50:53.671Z,9.20
2019-03-03T04:53:40.744Z,9.10
2019-03-03T04:56:39.003Z,9.10
2019-03-03T04:59:27.682Z,9.10
2019-03-03T05:02:16.695Z,9.10
2019-03-03T05:05:00.517Z,9.10
2019-03-03T05:07:56.243Z,9.10
2019-03-03T05:13:00.317Z,9.10
2019-03-03T05:15:50.475Z,9.20
2019-03-03T05:18:47.067Z,9.20
2019-03-03T05:21:19.226Z,9.20
2019-03-03T05:23:51.423Z,9.20
2019-03-03T05:26:22.825Z,9.20
2019-03-03T05:28:54.367Z,9.10
2019-03-03T05:31:26.747Z,9.10
2019-03-03T05:33:58.860Z,9.10
2019-03-03T05:36:34.087Z,9.20
2019-03-03T05:39:07.487Z,9.20
2019-03-03T05:41:40.305Z,9.20
2019-03-03T05:44:12.329Z,9.20
2019-03-03T05:46:44.380Z,9.30
2019-03-03T05:49:16.748Z,9.30
2019-03-03T05:51:49.698Z,9.30
2019-03-03T05:54:24.376Z,9.40
2019-03-03T05:56:56.221Z,9.50
2019-03-03T05:59:28.492Z,9.50
2019-03-03T06:02:01.066Z,9.60
2019-03-03T06:04:33.703Z,9.70
2019-03-03T06:07:07.083Z,9.70
2019-03-03T06:09:40.423Z,9.80
2019-03-03T06:12:15.282Z,9.80
2019-03-03T06:14:47.288Z,9.90
2019-03-03T06:17:19.644Z,9.90
2019-03-03T06:19:54.315Z,9.90
2019-03-03T06:22:27.882Z,9.80
2019-03-03T06:25:00.665Z,9.70
2019-03-03T06:27:33.468Z,9.60
2019-03-03T06:30:09.333Z,9.50
2019-03-03T06:32:40.785Z,9.50
2019-03-03T06:35:13.177Z,9.40
2019-03-03T06:37:45.174Z,9.50
2019-03-03T06:40:18.212Z,9.50
2019-03-03T06:42:50.613Z,9.50
2019-03-03T06:45:22.991Z,9.60
2019-03-03T06:47:55.564Z,9.70
2019-03-03T06:50:27.400Z,9.70
2019-03-03T06:52:59.586Z,9.80
2019-03-03T06:55:33.284Z,9.80
2019-03-03T06:58:05.749Z,9.90
2019-03-03T07:00:38.501Z,9.90
2019-03-03T07:03:12.163Z,10.00
2019-03-03T07:05:46.018Z,10.00
2019-03-03T07:08:17.371Z,10.00
2019-03-03T07:10:49.068Z,10.00
2019-03-03T07:13:20.436Z,10.10
2019-03-03T07:15:52.567Z,10.20
2019-03-03T07:18:24.345Z,10.20
2019-03-03T07:20:55.869Z,10.20
2019-03-03T07:23:27.456Z,10.20
2019-03-03T07:26:02.305Z,10.30
2019-03-03T07:28:35.154Z,10.30
2019-03-03T07:31:06.671Z,10.30
2019-03-03T07:33:41.984Z,10.30
2019-03-03T07:36:15.682Z,10.30
2019-03-03T07:38:47.817Z,10.40
2019-03-03T07:41:22.673Z,10.40
2019-03-03T07:43:55.698Z,10.30
2019-03-03T07:46:28.346Z,10.30
2019-03-03T07:49:02.226Z,10.40
2019-03-03T07:51:35.861Z,10.50
2019-03-03T07:54:10.432Z,10.50
2019-03-03T07:56:50.529Z,10.60
2019-03-03T07:59:24.569Z,10.60
2019-03-03T08:01:58.019Z,10.60
2019-03-03T08:04:31.446Z,10.60
2019-03-03T08:07:05.027Z,10.60
2019-03-03T08:09:39.534Z,10.60
2019-03-03T08:12:14.038Z,10.60
2019-03-03T08:14:48.503Z,10.50
2019-03-03T08:17:22.339Z,10.40
2019-03-03T08:19:57.663Z,10.30
2019-03-03T08:22:30.061Z,10.20
2019-03-03T08:25:04.337Z,10.10
2019-03-03T08:27:39.204Z,10.00
2019-03-03T08:30:13.086Z,10.00
2019-03-03T08:32:46.029Z,10.00
2019-03-03T08:35:19.215Z,10.00
2019-03-03T08:37:51.981Z,10.00
2019-03-03T08:40:27.816Z,10.00
2019-03-03T08:43:08.123Z,10.00
2019-03-03T08:46:02.714Z,9.90
2019-03-03T08:49:05.341Z,9.90
2019-03-03T08:52:14.162Z,9.90
2019-03-03T08:58:47.993Z,9.80
2019-03-03T09:01:36.411Z,9.80
2019-03-03T09:06:42.605Z,9.80
2019-03-03T09:09:40.255Z,9.80
2019-03-03T09:12:40.961Z,9.80
2019-03-03T09:15:54.984Z,9.80
2019-03-03T09:18:47.693Z,9.80
2019-03-03T09:21:41.507Z,9.80
2019-03-03T09:24:45.726Z,9.80
2019-03-03T09:27:57.450Z,9.90
2019-03-03T09:30:46.801Z,9.90
2019-03-03T09:33:52.110Z,10.00
2019-03-03T09:36:42.895Z,10.00
2019-03-03T09:39:34.007Z,10.00
2019-03-03T09:42:32.192Z,10.00
2019-03-03T09:45:26.328Z,10.00
2019-03-03T09:48:04.312Z,10.00
2019-03-03T09:50:53.094Z,10.00
2019-03-03T09:54:00.097Z,10.00
2019-03-03T09:56:56.695Z,10.00
2019-03-03T09:59:54.229Z,10.10
2019-03-03T10:03:02.621Z,10.10
2019-03-03T10:06:05.661Z,10.10
2019-03-03T10:08:59.873Z,10.10
2019-03-03T10:12:11.571Z,10.10
2019-03-03T10:14:53.852Z,10.20
2019-03-03T10:17:47.261Z,10.20
2019-03-03T10:20:29.440Z,10.20
2019-03-03T10:23:25.561Z,10.30
2019-03-03T10:26:17.540Z,10.20
2019-03-03T10:28:58.594Z,10.30
2019-03-03T10:31:51.582Z,10.30
2019-03-03T10:34:59.066Z,10.30
2019-03-03T10:37:43.929Z,10.30
2019-03-03T10:40:42.207Z,10.30
2019-03-03T10:43:32.728Z,10.30
2019-03-03T10:46:22.440Z,10.30
2019-03-03T10:49:15.367Z,10.40
2019-03-03T10:59:27.384Z,10.60
2019-03-03T11:02:23.221Z,10.70
2019-03-03T11:05:20.253Z,10.60
2019-03-03T11:08:21.178Z,10.60
2019-03-03T11:11:15.974Z,10.70
2019-03-03T11:13:59.497Z,10.70
2019-03-03T11:16:47.488Z,10.70
2019-03-03T11:19:33.379Z,10.70
2019-03-03T11:22:20.143Z,10.80
2019-03-03T11:25:12.326Z,10.80
2019-03-03T11:28:23.517Z,10.80
2019-03-03T11:31:03.056Z,10.90
2019-03-03T11:33:47.271Z,10.90
2019-03-03T11:36:49.237Z,11.00
2019-03-03T11:39:47.368Z,11.10
2019-03-03T11:42:35.490Z,11.20
2019-03-03T11:45:33.928Z,11.30
2019-03-03T11:48:27.862Z,11.30
2019-03-03T11:51:05.740Z,11.40
2019-03-03T11:54:07.200Z,11.40
2019-03-03T11:57:00.740Z,11.40
2019-03-03T12:00:00.896Z,11.30
2019-03-03T12:02:54.750Z,11.30
2019-03-03T12:05:38.720Z,11.30
2019-03-03T12:08:29.137Z,11.20
2019-03-03T12:11:24.793Z,11.20
2019-03-03T12:14:15.311Z,11.30
2019-03-03T12:17:11.198Z,11.30
2019-03-03T12:19:51.133Z,11.30
2019-03-03T12:22:33.675Z,11.40
2019-03-03T12:25:21.790Z,11.40
2019-03-03T12:28:12.308Z,11.40
2019-03-03T12:31:01.036Z,11.50
2019-03-03T12:33:56.229Z,11.50
2019-03-03T12:36:54.109Z,11.60
2019-03-03T12:39:32.768Z,11.50
2019-03-03T12:42:34.856Z,11.50
2019-03-03T12:45:17.560Z,11.60
2019-03-03T12:48:02.306Z,11.60
2019-03-03T12:50:54.241Z,11.60
2019-03-03T12:53:47.401Z,11.60
2019-03-03T12:56:45.783Z,11.60
2019-03-03T12:59:41.699Z,11.50
2019-03-03T13:02:49.392Z,11.40
2019-03-03T13:05:34.627Z,11.30
2019-03-03T13:08:28.777Z,11.20
2019-03-03T13:11:18.636Z,11.20
2019-03-03T13:14:11.032Z,11.20
2019-03-03T13:17:03.507Z,11.20
2019-03-03T13:22:10.533Z,11.20
2019-03-03T13:25:02.810Z,11.20
2019-03-03T13:27:45.530Z,11.20
2019-03-03T13:30:32.434Z,11.20
2019-03-03T13:33:13.573Z,11.20
2019-03-03T13:36:18.287Z,11.20
2019-03-03T13:39:00.386Z,11.20
2019-03-03T13:41:48.532Z,11.20
2019-03-03T13:44:19.273Z,11.20
2019-03-03T13:47:00.941Z,11.20
2019-03-03T13:49:31.780Z,11.20
2019-03-03T13:52:03.453Z,11.20
2019-03-03T13:54:40.114Z,11.20
2019-03-03T13:57:11.475Z,11.20
2019-03-03T13:59:43.109Z,11.20
2019-03-03T14:02:15.185Z,11.30
2019-03-03T14:04:45.976Z,11.20
2019-03-03T14:07:23.121Z,11.20
2019-03-03T14:09:56.232Z,11.20
2019-03-03T14:12:26.966Z,11.20
2019-03-03T14:15:02.358Z,11.20
2019-03-03T14:17:34.977Z,11.20
2019-03-03T14:20:10.688Z,11.30
2019-03-03T14:22:42.173Z,11.30
2019-03-03T14:25:13.067Z,11.40
2019-03-03T14:27:43.597Z,11.50
2019-03-03T14:30:16.761Z,11.50
2019-03-03T14:32:47.404Z,11.60
2019-03-03T14:35:18.182Z,11.60
2019-03-03T14:37:50.647Z,11.60
2019-03-03T14:40:23.440Z,11.60
2019-03-03T14:42:54.251Z,11.60
2019-03-03T14:45:24.978Z,11.70
2019-03-03T14:47:56.921Z,11.70
2019-03-03T14:50:27.849Z,11.70
2019-03-03T14:52:58.484Z,11.70
2019-03-03T14:55:30.844Z,11.70
2019-03-03T14:58:01.605Z,11.70
2019-03-03T15:00:33.964Z,11.80
2019-03-03T15:03:06.662Z,11.80
2019-03-03T15:05:40.417Z,11.80
2019-03-03T15:08:15.713Z,11.80
2019-03-03T15:10:46.913Z,11.80
2019-03-03T15:13:17.995Z,11.90
2019-03-03T15:15:50.038Z,11.90
2019-03-03T15:18:20.807Z,11.90
2019-03-03T15:20:51.609Z,11.90
2019-03-03T15:23:22.368Z,11.90
2019-03-03T15:25:54.384Z,11.90
2019-03-03T15:28:25.180Z,12.00
2019-03-03T15:30:55.819Z,12.00
2019-03-03T15:33:28.730Z,12.00
2019-03-03T15:35:59.396Z,12.10
2019-03-03T15:38:31.386Z,12.10
2019-03-03T15:41:02.019Z,12.10
2019-03-03T15:43:33.346Z,12.10
2019-03-03T15:46:05.314Z,12.10
2019-03-03T15:48:36.153Z,12.10
2019-03-03T15:51:06.883Z,12.10
2019-03-03T15:53:39.405Z,12.10
2019-03-03T15:56:10.504Z,12.20
2019-03-03T15:58:41.350Z,12.20
2019-03-03T16:01:16.074Z,12.20
2019-03-03T16:03:46.831Z,12.20
2019-03-03T16:06:18.091Z,12.20
2019-03-03T16:08:48.655Z,12.20
2019-03-03T16:11:20.752Z,12.20
2019-03-03T16:13:52.019Z,12.20
2019-03-03T16:16:22.728Z,12.20
2019-03-03T16:18:56.285Z,12.20
2019-03-03T16:21:29.369Z,12.20
2019-03-03T16:24:00.892Z,12.20
2019-03-03T16:26:32.471Z,12.20
2019-03-03T16:29:04.235Z,12.20
2019-03-03T16:31:41.412Z,12.20
2019-03-03T16:34:12.648Z,12.20
2019-03-03T16:36:44.460Z,12.20
2019-03-03T16:39:15.087Z,12.20
2019-03-03T16:41:46.853Z,12.20
2019-03-03T16:44:17.709Z,12.30
2019-03-03T16:46:48.813Z,12.30
2019-03-03T16:49:29.935Z,12.30
2019-03-03T16:52:02.475Z,12.30
2019-03-03T16:54:34.681Z,12.30
2019-03-03T16:57:05.363Z,12.30
2019-03-03T16:59:35.967Z,12.30
2019-03-03T17:02:06.551Z,12.30
2019-03-03T17:04:37.167Z,12.30
2019-03-03T17:07:07.875Z,12.30
2019-03-03T17:09:38.574Z,12.30
2019-03-03T17:12:09.317Z,12.30
2019-03-03T17:14:40.194Z,12.30
2019-03-03T17:17:10.812Z,12.30
2019-03-03T17:19:41.871Z,12.30
2019-03-03T17:22:12.981Z,12.30
2019-03-03T17:24:44.942Z,12.30
2019-03-03T17:27:16.028Z,12.30
2019-03-03T17:29:46.935Z,12.40
2019-03-03T17:32:17.558Z,12.40
2019-03-03T17:34:48.159Z,12.40
2019-03-03T17:37:18.837Z,12.40
2019-03-03T17:39:51.518Z,12.40
2019-03-03T17:42:22.520Z,12.40
2019-03-03T17:44:53.219Z,12.40
2019-03-03T17:47:24.670Z,12.40
2019-03-03T17:49:55.324Z,12.40
2019-03-03T17:52:25.900Z,12.40
2019-03-03T17:54:56.786Z,12.40
2019-03-03T17:57:27.414Z,12.40
2019-03-03T17:59:59.126Z,12.40
2019-03-03T18:02:29.813Z,12.40
2019-03-03T18:05:00.539Z,12.40
2019-03-03T18:07:31.857Z,12.40
2019-03-03T18:10:02.612Z,12.40
2019-03-03T18:12:33.333Z,12.40
2019-03-03T18:15:04.272Z,12.40
2019-03-03T18:17:36.095Z,12.40
2019-03-03T18:20:07.674Z,12.50
2019-03-03T18:22:39.496Z,12.40
2019-03-03T18:25:16.442Z,12.40
2019-03-03T18:27:47.921Z,12.40
2019-03-03T18:30:20.895Z,12.40
2019-03-03T18:32:51.622Z,12.50
2019-03-03T18:35:22.519Z,12.50
2019-03-03T18:37:53.352Z,12.50
2019-03-03T18:40:24.130Z,12.50
2019-03-03T18:42:55.134Z,12.50
2019-03-03T18:45:27.198Z,12.50
2019-03-03T18:47:58.100Z,12.50
2019-03-03T18:50:29.238Z,12.50
2019-03-03T18:53:00.797Z,12.50
2019-03-03T18:55:31.793Z,12.50
2019-03-03T18:58:02.887Z,12.50
2019-03-03T19:00:34.995Z,12.50
2019-03-03T19:03:07.019Z,12.60
2019-03-03T19:05:43.955Z,12.60
2019-03-03T19:08:15.037Z,12.60
2019-03-03T19:10:47.149Z,12.70
2019-03-03T19:13:21.705Z,12.70
2019-03-03T19:15:52.481Z,12.70
2019-03-03T19:18:23.425Z,12.70
2019-03-03T19:20:55.716Z,12.70
2019-03-03T19:23:26.472Z,12.70
2019-03-03T19:25:57.027Z,12.80
2019-03-03T19:28:28.714Z,12.80
2019-03-03T19:30:59.381Z,12.80
2019-03-03T19:33:35.339Z,12.70
2019-03-03T19:36:05.996Z,12.50
2019-03-03T19:38:36.836Z,12.40
2019-03-03T19:41:09.732Z,12.40
2019-03-03T19:43:40.432Z,12.50
2019-03-03T19:46:11.586Z,12.60
2019-03-03T19:48:44.376Z,12.70
2019-03-03T19:51:16.592Z,12.70
2019-03-03T19:53:50.485Z,12.70
2019-03-03T19:56:24.264Z,12.80
2019-03-03T19:58:55.036Z,12.80
2019-03-03T20:01:25.626Z,12.80
2019-03-03T20:03:59.698Z,12.80
2019-03-03T20:06:30.725Z,12.90
2019-03-03T20:09:02.705Z,12.90
2019-03-03T20:11:34.979Z,12.90
2019-03-03T20:14:05.749Z,12.90
2019-03-03T20:16:38.600Z,12.90
2019-03-03T20:19:09.387Z,12.90
2019-03-03T20:21:40.254Z,13.00
2019-03-03T20:24:10.976Z,12.90
2019-03-03T20:26:41.702Z,12.90
2019-03-03T20:29:12.336Z,12.90
2019-03-03T20:31:43.305Z,12.90
2019-03-03T20:34:14.068Z,12.90
2019-03-03T20:36:44.936Z,12.80
2019-03-03T20:39:15.776Z,12.80
2019-03-03T20:41:46.746Z,12.80
2019-03-03T20:44:23.749Z,12.80
2019-03-03T20:46:54.643Z,12.90
2019-03-03T20:49:26.292Z,12.90
2019-03-03T20:51:57.744Z,13.00
2019-03-03T20:54:28.295Z,13.00
2019-03-03T20:56:59.116Z,13.00
2019-03-03T20:59:29.833Z,13.00
2019-03-03T21:02:00.499Z,13.00
2019-03-03T21:04:31.159Z,13.00
2019-03-03T21:07:01.947Z,13.00
2019-03-03T21:09:32.600Z,13.10
2019-03-03T21:12:04.234Z,13.10
2019-03-03T21:14:35.438Z,13.10
2019-03-03T21:17:06.193Z,13.10
2019-03-03T21:19:36.928Z,13.10
2019-03-03T21:22:08.463Z,13.10
2019-03-03T21:24:40.381Z,13.00
2019-03-03T21:27:12.872Z,13.00
2019-03-03T21:29:45.000Z,13.00
2019-03-03T21:32:17.476Z,13.00
2019-03-03T21:34:49.048Z,13.00
2019-03-03T21:37:20.604Z,13.00
2019-03-03T21:39:52.459Z,13.00
2019-03-03T21:42:24.815Z,13.00
2019-03-03T21:44:55.960Z,13.00
2019-03-03T21:47:27.982Z,13.00
2019-03-03T21:49:59.706Z,13.00
2019-03-03T21:52:33.016Z,13.10
2019-03-03T21:55:04.469Z,13.10
2019-03-03T21:57:39.371Z,13.10
2019-03-03T22:00:36.469Z,13.20
2019-03-03T22:03:09.106Z,13.20
2019-03-03T22:05:41.052Z,13.20
2019-03-03T22:08:12.927Z,13.20
2019-03-03T22:10:44.334Z,13.30
2019-03-03T22:13:16.126Z,13.30
2019-03-03T22:15:48.230Z,13.30
2019-03-03T22:18:19.487Z,13.40
2019-03-03T22:20:52.104Z,13.30
2019-03-03T22:23:24.255Z,13.30
2019-03-03T22:25:56.248Z,13.30
2019-03-03T22:28:28.037Z,13.30
2019-03-03T22:30:59.652Z,13.30
2019-03-03T22:33:31.553Z,13.30
2019-03-03T22:36:03.143Z,13.30
2019-03-03T22:38:35.489Z,13.20
2019-03-03T22:41:07.584Z,13.20
2019-03-03T22:43:39.927Z,13.20
2019-03-03T22:46:14.081Z,13.20
2019-03-03T22:48:45.101Z,13.10
2019-03-03T22:51:16.285Z,13.10
2019-03-03T22:53:47.540Z,13.10
2019-03-03T22:56:20.687Z,13.10
2019-03-03T22:58:52.683Z,13.10
2019-03-03T23:01:27.110Z,13.00
2019-03-03T23:04:32.464Z,12.90
2019-03-03T23:07:17.109Z,12.90
2019-03-03T23:10:28.855Z,12.80
2019-03-03T23:13:29.640Z,12.80
2019-03-03T23:16:10.555Z,12.80
2019-03-03T23:19:46.858Z,12.80
2019-03-03T23:23:14.554Z,12.80
2019-03-03T23:25:53.328Z,12.80
2019-03-03T23:28:26.095Z,12.80
2019-03-03T23:30:58.370Z,12.90
2019-03-03T23:33:30.866Z,12.90
2019-03-03T23:36:02.880Z,12.90
2019-03-03T23:38:34.231Z,12.90
2019-03-03T23:41:05.652Z,12.90
2019-03-03T23:43:37.373Z,12.90
2019-03-03T23:46:14.609Z,12.90
2019-03-03T23:48:46.319Z,12.90
2019-03-03T23:51:17.862Z,12.90
2019-03-03T23:53:50.750Z,12.90
2019-03-03T23:56:22.243Z,13.00
2019-03-03T23:58:54.011Z,13.00
